createdAt,value
2023-06-14T00:02:15.681Z,13.33
2023-06-14T00:05:19.133Z,13.24
2023-06-14T00:08:23.916Z,13.23
2023-06-14T00:11:28.146Z,13.21
2023-06-14T00:14:31.306Z,13.16
2023-06-14T00:17:35.473Z,12.98
2023-06-14T00:20:38.774Z,12.91
2023-06-14T00:23:42.069Z,12.98
2023-06-14T00:26:44.972Z,12.92
2023-06-14T00:29:48.076Z,12.93
2023-06-14T00:32:51.399Z,12.91
2023-06-14T00:35:55.224Z,13.01
2023-06-14T00:38:58.486Z,12.90
2023-06-14T00:42:01.674Z,12.88
2023-06-14T00:45:05.206Z,12.89
2023-06-14T00:48:10.525Z,12.89
2023-06-14T00:51:13.684Z,12.89
2023-06-14T00:54:17.013Z,12.97
2023-06-14T00:57:22.417Z,13.07
2023-06-14T01:00:25.867Z,12.94
2023-06-14T01:03:33.404Z,12.89
2023-06-14T01:06:52.777Z,12.84
2023-06-14T01:10:11.335Z,12.92
2023-06-14T01:13:26.613Z,12.91
2023-06-14T01:16:32.893Z,12.84
2023-06-14T01:19:36.322Z,12.80
2023-06-14T01:22:44.447Z,12.52
2023-06-14T01:25:48.945Z,12.35
2023-06-14T01:28:59.727Z,12.30
2023-06-14T01:32:03.256Z,12.35
2023-06-14T01:35:08.268Z,12.46
2023-06-14T01:38:11.999Z,12.45
2023-06-14T01:41:16.380Z,12.49
2023-06-14T01:44:21.208Z,12.51
2023-06-14T01:47:24.494Z,12.38
2023-06-14T01:50:33.906Z,12.52
2023-06-14T01:53:37.376Z,12.52
2023-06-14T01:56:40.309Z,12.38
2023-06-14T01:59:43.301Z,12.19
2023-06-14T02:02:47.096Z,12.10
2023-06-14T02:05:50.382Z,12.11
2023-06-14T02:08:54.236Z,12.11
2023-06-14T02:11:57.748Z,12.03
2023-06-14T02:15:00.821Z,11.92
2023-06-14T02:18:04.917Z,11.80
2023-06-14T02:21:10.021Z,11.68
2023-06-14T02:24:13.221Z,11.55
2023-06-14T02:27:16.264Z,11.53
2023-06-14T02:30:22.439Z,11.51
2023-06-14T02:33:26.600Z,11.61
2023-06-14T02:36:32.780Z,11.62
2023-06-14T02:39:37.969Z,11.63
2023-06-14T02:42:41.399Z,11.50
2023-06-14T02:45:44.589Z,11.44
2023-06-14T02:48:47.848Z,11.34
2023-06-14T02:51:51.028Z,11.35
2023-06-14T02:54:54.844Z,11.34
2023-06-14T02:57:58.352Z,11.30
2023-06-14T03:01:05.147Z,11.35
2023-06-14T03:04:12.131Z,11.42
2023-06-14T03:07:21.518Z,11.32
2023-06-14T03:10:30.458Z,11.25
2023-06-14T03:13:40.049Z,10.96
2023-06-14T03:16:44.183Z,11.05
2023-06-14T03:19:49.904Z,11.00
2023-06-14T03:22:55.410Z,11.12
2023-06-14T03:25:59.142Z,11.25
2023-06-14T03:29:03.123Z,11.15
2023-06-14T03:32:07.437Z,11.08
2023-06-14T03:35:18.555Z,11.11
2023-06-14T03:38:26.944Z,11.05
2023-06-14T03:41:30.048Z,10.98
2023-06-14T03:44:33.659Z,11.07
2023-06-14T03:47:38.213Z,11.32
2023-06-14T03:50:44.111Z,11.30
2023-06-14T03:54:08.988Z,11.67
2023-06-14T03:57:11.711Z,12.29
2023-06-14T04:00:16.697Z,12.85
2023-06-14T04:03:21.265Z,13.10
2023-06-14T04:06:26.232Z,13.40
2023-06-14T04:09:29.632Z,13.84
2023-06-14T04:12:33.812Z,14.02
2023-06-14T04:15:38.347Z,14.00
2023-06-14T04:18:42.322Z,14.27
2023-06-14T04:21:46.111Z,14.22
2023-06-14T04:25:00.735Z,14.21
2023-06-14T04:28:12.396Z,14.19
2023-06-14T04:31:17.702Z,14.25
2023-06-14T04:34:22.820Z,14.38
2023-06-14T04:37:32.523Z,14.43
2023-06-14T04:40:37.375Z,14.55
2023-06-14T04:43:41.837Z,14.63
2023-06-14T04:46:48.024Z,14.77
2023-06-14T04:49:58.993Z,14.88
2023-06-14T04:53:06.923Z,14.93
2023-06-14T04:56:11.183Z,14.97
2023-06-14T04:59:16.174Z,15.02
2023-06-14T05:02:19.570Z,14.94
2023-06-14T05:05:26.259Z,14.96
2023-06-14T05:08:29.842Z,14.80
2023-06-14T05:11:33.739Z,14.83
2023-06-14T05:14:37.942Z,14.87
2023-06-14T05:17:42.651Z,14.91
2023-06-14T05:20:45.701Z,14.90
2023-06-14T05:23:48.861Z,14.91
2023-06-14T05:26:52.302Z,14.99
2023-06-14T05:30:00.137Z,15.01
2023-06-14T05:33:04.278Z,15.03
2023-06-14T05:36:08.813Z,15.20
2023-06-14T05:39:12.393Z,15.31
2023-06-14T05:42:15.524Z,15.59
2023-06-14T05:45:19.133Z,15.79
2023-06-14T05:48:22.997Z,15.62
2023-06-14T05:51:26.796Z,15.49
2023-06-14T05:54:30.092Z,15.52
2023-06-14T05:57:33.676Z,15.67
2023-06-14T06:00:38.028Z,15.90
2023-06-14T06:03:41.751Z,15.82
2023-06-14T06:06:45.160Z,15.86
2023-06-14T06:09:49.128Z,15.96
2023-06-14T06:12:53.511Z,15.82
2023-06-14T06:15:58.066Z,15.59
2023-06-14T06:19:03.325Z,15.79
2023-06-14T06:22:07.784Z,15.66
2023-06-14T06:25:11.252Z,15.58
2023-06-14T06:28:14.958Z,15.47
2023-06-14T06:31:18.734Z,15.56
2023-06-14T06:34:21.995Z,15.62
2023-06-14T06:37:25.438Z,15.54
2023-06-14T06:40:29.200Z,15.52
2023-06-14T06:43:32.921Z,15.45
2023-06-14T06:46:42.723Z,15.44
2023-06-14T06:49:46.632Z,15.39
2023-06-14T06:52:50.723Z,15.22
2023-06-14T06:55:54.393Z,15.26
2023-06-14T06:58:58.293Z,15.15
2023-06-14T07:02:02.215Z,15.18
2023-06-14T07:05:06.167Z,15.11
2023-06-14T07:08:09.414Z,15.27
2023-06-14T07:11:13.054Z,15.28
2023-06-14T07:14:16.688Z,15.23
2023-06-14T07:17:20.464Z,15.41
2023-06-14T07:20:26.143Z,15.51
2023-06-14T07:23:29.624Z,15.72
2023-06-14T07:26:33.423Z,15.72
2023-06-14T07:29:36.609Z,15.90
2023-06-14T07:32:40.118Z,15.87
2023-06-14T07:35:44.594Z,16.03
2023-06-14T07:38:48.084Z,16.09
2023-06-14T07:41:51.798Z,16.07
2023-06-14T07:44:55.438Z,16.30
2023-06-14T07:47:59.177Z,16.49
2023-06-14T07:51:04.118Z,16.68
2023-06-14T07:54:08.842Z,16.90
2023-06-14T07:57:11.898Z,17.19
2023-06-14T08:00:16.816Z,17.39
2023-06-14T08:03:21.073Z,17.88
2023-06-14T08:06:24.578Z,18.32
2023-06-14T08:09:30.406Z,18.35
2023-06-14T08:12:35.102Z,18.37
2023-06-14T08:15:38.592Z,18.15
2023-06-14T08:18:42.460Z,18.15
2023-06-14T08:21:46.005Z,18.09
2023-06-14T08:24:49.761Z,18.08
2023-06-14T08:27:56.271Z,18.31
2023-06-14T08:31:00.422Z,18.23
2023-06-14T08:34:05.555Z,18.27
2023-06-14T08:37:11.041Z,18.51
2023-06-14T08:40:25.283Z,18.81
2023-06-14T08:43:28.728Z,19.03
2023-06-14T08:46:35.414Z,19.09
2023-06-14T08:49:40.846Z,18.90
2023-06-14T08:52:50.755Z,19.09
2023-06-14T08:55:54.725Z,19.29
2023-06-14T08:59:02.600Z,19.46
2023-06-14T09:02:13.181Z,19.60
2023-06-14T09:05:19.671Z,19.79
2023-06-14T09:08:23.606Z,19.73
2023-06-14T09:11:28.043Z,19.65
2023-06-14T09:14:32.554Z,19.88
2023-06-14T09:17:37.261Z,20.02
2023-06-14T09:20:42.334Z,20.31
2023-06-14T09:23:47.452Z,20.26
2023-06-14T09:26:52.796Z,20.03
2023-06-14T09:29:56.333Z,20.03
2023-06-14T09:33:02.906Z,20.02
2023-06-14T09:36:14.166Z,20.24
2023-06-14T09:39:19.488Z,20.48
2023-06-14T09:42:24.284Z,20.63
2023-06-14T09:45:30.856Z,20.87
2023-06-14T09:48:34.979Z,21.07
2023-06-14T09:51:45.190Z,21.17
2023-06-14T09:54:50.928Z,21.30
2023-06-14T09:57:55.733Z,21.47
2023-06-14T10:01:00.665Z,21.54
2023-06-14T10:04:11.290Z,21.58
2023-06-14T10:07:21.728Z,21.71
2023-06-14T10:10:25.109Z,21.76
2023-06-14T10:13:32.941Z,21.95
2023-06-14T10:16:48.648Z,22.26
2023-06-14T10:19:59.612Z,22.27
2023-06-14T10:23:11.835Z,22.48
2023-06-14T10:26:26.251Z,22.75
2023-06-14T10:29:33.700Z,22.93
2023-06-14T10:32:57.093Z,22.94
2023-06-14T10:36:10.061Z,23.24
2023-06-14T10:39:18.882Z,23.19
2023-06-14T10:42:24.156Z,23.43
2023-06-14T10:45:27.656Z,23.36
2023-06-14T10:48:31.552Z,23.33
2023-06-14T10:51:47.693Z,23.26
2023-06-14T10:55:16.539Z,23.45
2023-06-14T10:58:20.434Z,23.14
2023-06-14T11:01:34.042Z,22.82
2023-06-14T11:04:53.602Z,22.63
2023-06-14T11:08:05.994Z,22.38
2023-06-14T11:11:10.610Z,22.33
2023-06-14T11:14:14.074Z,22.11
2023-06-14T11:17:32.281Z,21.89
2023-06-14T11:20:36.884Z,21.77
2023-06-14T11:23:40.193Z,21.71
2023-06-14T11:26:43.504Z,21.77
2023-06-14T11:29:51.226Z,21.70
2023-06-14T11:32:58.631Z,21.70
2023-06-14T11:36:05.739Z,21.64
2023-06-14T11:39:10.008Z,21.60
2023-06-14T11:42:22.314Z,21.47
2023-06-14T11:45:26.385Z,21.47
2023-06-14T11:48:43.673Z,21.44
2023-06-14T11:51:47.532Z,21.46
2023-06-14T11:54:50.618Z,21.35
2023-06-14T11:57:56.405Z,21.41
2023-06-14T12:00:59.539Z,21.37
2023-06-14T12:04:05.744Z,21.38
2023-06-14T12:07:21.356Z,21.43
2023-06-14T12:10:24.667Z,21.53
2023-06-14T12:13:28.812Z,21.65
2023-06-14T12:16:36.932Z,21.82
2023-06-14T12:19:45.218Z,21.86
2023-06-14T12:22:57.712Z,21.93
2023-06-14T12:26:02.757Z,21.80
2023-06-14T12:29:08.269Z,21.82
2023-06-14T12:32:11.914Z,21.73
2023-06-14T12:35:16.475Z,21.62
2023-06-14T12:38:19.990Z,21.48
2023-06-14T12:41:25.898Z,21.28
2023-06-14T12:44:29.515Z,21.31
2023-06-14T12:47:32.551Z,21.25
2023-06-14T12:50:36.141Z,21.06
2023-06-14T12:53:39.560Z,20.78
2023-06-14T12:56:44.479Z,20.51
2023-06-14T12:59:47.956Z,20.35
2023-06-14T13:02:52.164Z,20.22
2023-06-14T13:05:55.594Z,20.07
2023-06-14T13:09:00.360Z,20.05
2023-06-14T13:12:04.244Z,19.93
2023-06-14T13:15:08.889Z,19.79
2023-06-14T13:18:13.931Z,19.78
2023-06-14T13:21:17.032Z,19.76
2023-06-14T13:24:20.349Z,19.84
2023-06-14T13:27:25.095Z,19.76
2023-06-14T13:30:28.300Z,19.69
2023-06-14T13:33:33.322Z,19.69
2023-06-14T13:36:36.765Z,19.67
2023-06-14T13:39:40.826Z,19.63
2023-06-14T13:42:44.349Z,19.56
2023-06-14T13:45:47.631Z,19.58
2023-06-14T13:48:50.797Z,19.64
2023-06-14T13:51:54.371Z,19.62
2023-06-14T13:54:58.068Z,19.59
2023-06-14T13:58:01.588Z,19.54
2023-06-14T14:01:05.082Z,19.50
2023-06-14T14:04:08.267Z,19.46
2023-06-14T14:07:11.471Z,19.52
2023-06-14T14:10:16.134Z,19.44
2023-06-14T14:13:19.489Z,19.52
2023-06-14T14:16:22.933Z,19.55
2023-06-14T14:19:26.302Z,19.59
2023-06-14T14:22:29.604Z,19.51
2023-06-14T14:25:32.837Z,19.56
2023-06-14T14:28:36.050Z,19.52
2023-06-14T14:31:40.110Z,19.60
2023-06-14T14:34:43.339Z,19.67
2023-06-14T14:37:46.907Z,19.69
2023-06-14T14:40:50.300Z,19.87
2023-06-14T14:43:53.649Z,20.01
2023-06-14T14:46:56.773Z,20.04
2023-06-14T14:49:59.817Z,20.11
2023-06-14T14:53:03.111Z,20.22
2023-06-14T14:56:07.265Z,20.15
2023-06-14T14:59:10.599Z,20.18
2023-06-14T15:02:13.968Z,20.31
2023-06-14T15:05:17.274Z,20.34
2023-06-14T15:08:21.346Z,20.43
2023-06-14T15:11:24.851Z,20.35
2023-06-14T15:14:28.184Z,20.45
2023-06-14T15:17:31.851Z,20.46
2023-06-14T15:20:35.360Z,20.54
2023-06-14T15:23:38.684Z,20.44
2023-06-14T15:26:41.971Z,20.57
2023-06-14T15:29:47.455Z,20.58
2023-06-14T15:32:52.469Z,20.57
2023-06-14T15:35:56.784Z,20.51
2023-06-14T15:39:00.183Z,20.53
2023-06-14T15:42:04.620Z,20.47
2023-06-14T15:45:08.691Z,20.51
2023-06-14T15:48:11.910Z,20.59
2023-06-14T15:51:15.322Z,20.54
2023-06-14T15:54:18.669Z,20.58
2023-06-14T15:57:21.710Z,20.68
2023-06-14T16:00:27.265Z,20.65
2023-06-14T16:03:30.857Z,20.70
2023-06-14T16:06:34.537Z,20.74
2023-06-14T16:09:37.978Z,20.79
2023-06-14T16:12:41.094Z,20.84
2023-06-14T16:15:44.643Z,20.79
2023-06-14T16:18:47.832Z,20.89
2023-06-14T16:21:51.829Z,20.95
2023-06-14T16:24:55.512Z,21.08
2023-06-14T16:27:58.790Z,21.00
2023-06-14T16:31:02.354Z,21.01
2023-06-14T16:34:09.399Z,20.96
2023-06-14T16:37:12.485Z,20.94
2023-06-14T16:40:16.265Z,20.90
2023-06-14T16:43:19.816Z,20.90
2023-06-14T16:46:31.337Z,20.90
2023-06-14T16:49:35.050Z,20.95
2023-06-14T16:52:38.267Z,20.88
2023-06-14T16:55:42.669Z,20.80
2023-06-14T16:58:46.365Z,20.76
2023-06-14T17:01:52.322Z,20.75
2023-06-14T17:04:55.736Z,20.62
2023-06-14T17:08:00.187Z,20.57
2023-06-14T17:11:04.039Z,20.48
2023-06-14T17:14:09.264Z,20.41
2023-06-14T17:17:12.824Z,20.26
2023-06-14T17:20:16.686Z,20.12
2023-06-14T17:23:20.215Z,19.98
2023-06-14T17:26:23.196Z,19.93
2023-06-14T17:29:27.901Z,19.83
2023-06-14T17:32:31.179Z,19.75
2023-06-14T17:35:34.488Z,19.66
2023-06-14T17:38:38.492Z,19.58
2023-06-14T17:41:41.664Z,19.47
2023-06-14T17:44:45.676Z,19.39
2023-06-14T17:47:50.694Z,19.32
2023-06-14T17:50:55.264Z,19.20
2023-06-14T17:53:58.355Z,19.14
2023-06-14T17:57:01.689Z,19.07
2023-06-14T18:00:07.045Z,18.97
2023-06-14T18:03:15.807Z,19.02
2023-06-14T18:06:19.518Z,18.95
2023-06-14T18:09:22.857Z,18.93
2023-06-14T18:12:27.042Z,18.80
2023-06-14T18:15:30.758Z,18.72
2023-06-14T18:18:34.239Z,18.66
2023-06-14T18:21:38.058Z,18.57
2023-06-14T18:24:41.224Z,18.52
2023-06-14T18:27:45.448Z,18.49
2023-06-14T18:30:48.750Z,18.43
2023-06-14T18:33:52.488Z,18.41
2023-06-14T18:36:58.288Z,18.40
2023-06-14T18:40:03.187Z,18.35
2023-06-14T18:43:06.549Z,18.21
2023-06-14T18:46:13.191Z,18.25
2023-06-14T18:49:16.572Z,18.22
2023-06-14T18:52:19.677Z,18.17
2023-06-14T18:55:26.107Z,18.06
2023-06-14T18:58:29.680Z,17.94
2023-06-14T19:01:33.377Z,17.85
2023-06-14T19:04:37.478Z,17.88
2023-06-14T19:07:41.002Z,17.79
2023-06-14T19:10:44.620Z,17.65
2023-06-14T19:13:48.291Z,17.60
2023-06-14T19:16:52.713Z,17.44
2023-06-14T19:19:56.449Z,17.33
2023-06-14T19:23:01.271Z,17.14
2023-06-14T19:26:05.375Z,17.17
2023-06-14T19:29:08.623Z,17.13
2023-06-14T19:32:12.807Z,17.11
2023-06-14T19:35:16.800Z,17.05
2023-06-14T19:38:20.550Z,17.09
2023-06-14T19:41:29.101Z,17.07
2023-06-14T19:44:32.607Z,17.11
2023-06-14T19:47:35.862Z,17.00
2023-06-14T19:50:39.134Z,16.91
2023-06-14T19:53:42.380Z,16.90
2023-06-14T19:56:46.524Z,16.89
2023-06-14T19:59:49.819Z,16.87
2023-06-14T20:02:53.694Z,16.78
2023-06-14T20:05:57.295Z,16.73
2023-06-14T20:09:00.511Z,16.62
2023-06-14T20:12:04.055Z,16.65
2023-06-14T20:15:08.151Z,16.68
2023-06-14T20:18:11.709Z,16.74
2023-06-14T20:21:14.829Z,16.80
2023-06-14T20:24:18.075Z,16.85
2023-06-14T20:27:21.464Z,16.78
2023-06-14T20:30:24.885Z,16.77
2023-06-14T20:33:28.473Z,16.74
2023-06-14T20:36:31.743Z,16.72
2023-06-14T20:39:34.966Z,16.65
2023-06-14T20:42:38.343Z,16.64
2023-06-14T20:45:41.715Z,16.64
2023-06-14T20:48:45.062Z,16.54
2023-06-14T20:51:48.243Z,16.45
2023-06-14T20:54:55.813Z,16.56
2023-06-14T20:58:00.386Z,16.54
2023-06-14T21:01:04.603Z,16.49
2023-06-14T21:04:08.053Z,16.50
2023-06-14T21:07:11.397Z,16.45
2023-06-14T21:10:15.233Z,16.33
2023-06-14T21:13:18.401Z,16.37
2023-06-14T21:16:21.585Z,16.38
2023-06-14T21:19:24.821Z,16.42
2023-06-14T21:22:27.984Z,16.37
2023-06-14T21:25:31.340Z,16.31
2023-06-14T21:28:34.364Z,16.32
2023-06-14T21:31:37.551Z,16.28
2023-06-14T21:34:41.980Z,16.28
2023-06-14T21:37:45.027Z,16.28
2023-06-14T21:40:48.122Z,16.26
2023-06-14T21:43:51.144Z,16.22
2023-06-14T21:46:54.338Z,16.10
2023-06-14T21:49:57.497Z,16.09
2023-06-14T21:53:00.541Z,16.10
2023-06-14T21:56:04.091Z,16.08
2023-06-14T21:59:07.294Z,16.04
2023-06-14T22:02:10.983Z,16.02
2023-06-14T22:05:13.957Z,15.93
2023-06-14T22:08:17.999Z,15.92
2023-06-14T22:11:22.333Z,15.95
2023-06-14T22:14:25.288Z,15.91
2023-06-14T22:17:30.691Z,15.84
2023-06-14T22:20:34.292Z,15.86
2023-06-14T22:23:37.642Z,15.81
2023-06-14T22:26:48.662Z,15.76
2023-06-14T22:29:58.255Z,15.80
2023-06-14T22:33:04.539Z,15.75
2023-06-14T22:36:09.623Z,15.71
2023-06-14T22:39:13.299Z,15.60
2023-06-14T22:42:19.453Z,15.59
2023-06-14T22:45:28.664Z,15.46
2023-06-14T22:48:45.888Z,15.49
2023-06-14T22:51:56.731Z,15.43
2023-06-14T22:55:00.195Z,15.29
2023-06-14T22:58:04.562Z,15.35
2023-06-14T23:01:16.198Z,15.41
2023-06-14T23:04:22.120Z,15.42
2023-06-14T23:07:28.401Z,15.45
2023-06-14T23:10:31.734Z,15.52
2023-06-14T23:13:35.019Z,15.44
2023-06-14T23:16:38.397Z,15.44
2023-06-14T23:19:41.883Z,15.45
2023-06-14T23:22:44.888Z,15.48
2023-06-14T23:25:49.621Z,15.48
2023-06-14T23:28:55.479Z,15.48
2023-06-14T23:32:00.980Z,15.41
2023-06-14T23:35:09.338Z,15.31
2023-06-14T23:38:13.612Z,15.33
2023-06-14T23:41:17.310Z,15.29
2023-06-14T23:44:25.805Z,15.29
2023-06-14T23:47:32.560Z,15.28
2023-06-14T23:50:35.920Z,15.15
2023-06-14T23:53:39.353Z,15.02
2023-06-14T23:56:42.626Z,14.98
2023-06-14T23:59:46.593Z,14.91
